Weather at HAL Airport

Public forecast

Using degrees Celsius for public forecast. Weather courtesy of forecast.io.

Current aviation weather report (METAR) for HAL Airport

Retrieved 2021/10/24 14:00 UTC (36 minutes ago):

VOBG 241400Z 12004KT 6000 SCT012 FEW025CB SCT080 25/20 Q1017 NOSIG

Aviation forecast (TAF) for HAL Airport

Forecast is more than 12 hours old.

Retrieved 2021/02/26 15:00 UTC (8 months ago):

TAF VOBG 261400Z 2615/2624 VRB02KT 6000 NSC BECMG 2622/2623 3000 BR SCT010